createdAt,value
2018-01-04T00:00:32.990Z,6.10
2018-01-04T00:03:00.586Z,8.23
2018-01-04T00:05:28.139Z,9.23
2018-01-04T00:07:55.682Z,6.27
2018-01-04T00:10:23.237Z,8.53
2018-01-04T00:12:50.819Z,8.20
2018-01-04T00:15:19.237Z,12.97
2018-01-04T00:17:46.782Z,6.70
2018-01-04T00:20:14.297Z,8.03
2018-01-04T00:22:41.917Z,7.50
2018-01-04T00:25:09.476Z,10.67
2018-01-04T00:27:36.996Z,7.50
2018-01-04T00:30:04.545Z,8.47
2018-01-04T00:32:32.075Z,6.10
2018-01-04T00:34:59.612Z,4.10
2018-01-04T00:37:27.182Z,5.63
2018-01-04T00:39:55.497Z,12.23
2018-01-04T00:42:23.015Z,7.67
2018-01-04T00:44:51.350Z,9.13
2018-01-04T00:47:18.869Z,6.50
2018-01-04T00:49:47.163Z,6.47
2018-01-04T00:52:15.289Z,7.63
2018-01-04T00:54:42.813Z,6.73
2018-01-04T00:57:10.359Z,6.80
2018-01-04T00:59:37.869Z,7.50
2018-01-04T01:02:05.419Z,2.80
2018-01-04T01:04:32.986Z,5.53
2018-01-04T01:07:00.539Z,5.33
2018-01-04T01:09:28.072Z,2.87
2018-01-04T01:11:55.589Z,6.50
2018-01-04T01:14:23.908Z,6.17
2018-01-04T01:16:51.415Z,3.23
2018-01-04T01:19:19.690Z,8.77
2018-01-04T01:21:47.242Z,6.13
2018-01-04T01:24:14.770Z,4.17
2018-01-04T01:26:42.307Z,8.37
2018-01-04T01:29:09.827Z,7.83
2018-01-04T01:31:37.403Z,7.00
2018-01-04T01:34:05.673Z,5.53
2018-01-04T01:36:33.214Z,4.77
2018-01-04T01:39:00.769Z,10.17
2018-01-04T01:41:28.282Z,5.47
2018-01-04T01:43:55.830Z,8.10
2018-01-04T01:46:23.349Z,6.30
2018-01-04T01:49:02.596Z,10.40
2018-01-04T01:51:30.871Z,6.03
2018-01-04T01:53:59.149Z,14.27
2018-01-04T01:56:26.699Z,4.40
2018-01-04T01:58:54.289Z,12.33
2018-01-04T02:01:21.818Z,7.57
2018-01-04T02:03:49.360Z,7.77
2018-01-04T02:06:16.928Z,6.43
2018-01-04T02:08:44.434Z,5.03
2018-01-04T02:11:11.961Z,10.30
2018-01-04T02:13:39.503Z,7.33
2018-01-04T02:16:07.019Z,8.27
2018-01-04T02:18:46.232Z,10.03
2018-01-04T02:21:25.463Z,7.03
2018-01-04T02:23:53.923Z,9.97
2018-01-04T02:26:33.961Z,4.10
2018-01-04T02:32:09.079Z,6.93
2018-01-04T02:34:48.426Z,8.50
2018-01-04T02:37:27.672Z,8.23
2018-01-04T02:40:06.828Z,11.03
2018-01-04T02:42:46.064Z,6.83
2018-01-04T02:45:25.273Z,10.03
2018-01-04T02:47:52.819Z,11.30
2018-01-04T02:50:20.676Z,5.53
2018-01-04T02:52:48.180Z,4.77
2018-01-04T02:55:15.748Z,10.37
2018-01-04T02:57:43.270Z,16.07
2018-01-04T03:00:11.145Z,16.93
2018-01-04T03:02:38.658Z,6.93
2018-01-04T03:05:06.229Z,8.97
2018-01-04T03:07:33.777Z,11.67
2018-01-04T03:10:01.295Z,8.43
2018-01-04T03:12:28.855Z,10.20
2018-01-04T03:14:56.377Z,12.40
2018-01-04T03:17:23.934Z,9.77
2018-01-04T03:19:51.489Z,11.30
2018-01-04T03:22:24.687Z,6.17
2018-01-04T03:24:58.020Z,7.80
2018-01-04T03:27:31.195Z,10.77
2018-01-04T03:30:04.307Z,10.80
2018-01-04T03:32:37.411Z,9.40
2018-01-04T03:35:10.662Z,8.97
2018-01-04T03:37:43.860Z,7.50
2018-01-04T03:40:16.997Z,9.47
2018-01-04T03:42:50.105Z,11.60
2018-01-04T03:45:23.353Z,9.27
2018-01-04T03:51:07.398Z,8.37
2018-01-04T03:53:40.577Z,7.73
2018-01-04T03:56:13.824Z,13.40
2018-01-04T03:58:47.041Z,9.77
2018-01-04T04:01:20.281Z,19.47
2018-01-04T04:03:47.806Z,9.27
2018-01-04T04:06:21.023Z,9.27
2018-01-04T04:08:48.597Z,8.47
2018-01-04T04:11:16.152Z,14.23
2018-01-04T04:13:43.684Z,11.77
2018-01-04T04:16:11.248Z,10.83
2018-01-04T04:18:38.814Z,12.30
2018-01-04T04:21:06.368Z,16.17
2018-01-04T04:23:33.929Z,13.83
2018-01-04T04:26:01.491Z,10.97
2018-01-04T04:28:29.047Z,6.53
2018-01-04T04:30:56.620Z,10.80
2018-01-04T04:33:24.182Z,10.70
2018-01-04T04:35:51.717Z,9.30
2018-01-04T04:38:19.282Z,9.73
2018-01-04T04:40:46.844Z,6.73
2018-01-04T04:43:14.365Z,9.93
2018-01-04T04:45:41.925Z,4.87
2018-01-04T04:48:09.472Z,6.97
2018-01-04T04:50:37.786Z,8.50
2018-01-04T04:53:05.310Z,9.20
2018-01-04T04:55:32.877Z,5.83
2018-01-04T04:58:00.389Z,6.10
2018-01-04T05:00:27.961Z,4.83
2018-01-04T05:02:55.506Z,3.73
2018-01-04T05:05:23.016Z,3.20
2018-01-04T05:07:50.601Z,2.93
2018-01-04T05:10:18.169Z,3.57
2018-01-04T05:12:45.685Z,2.33
2018-01-04T05:15:13.261Z,2.10
2018-01-04T05:17:40.781Z,1.57
2018-01-04T05:20:08.378Z,1.47
2018-01-04T05:22:35.960Z,2.13
2018-01-04T05:25:03.505Z,2.10
2018-01-04T05:27:31.063Z,1.93
2018-01-04T05:29:58.580Z,2.07
2018-01-04T05:32:26.145Z,3.63
2018-01-04T05:34:53.659Z,2.00
2018-01-04T05:37:21.220Z,2.23
2018-01-04T05:39:48.738Z,2.93
2018-01-04T05:42:17.058Z,2.57
2018-01-04T05:44:44.598Z,1.10
2018-01-04T05:47:12.150Z,1.30
2018-01-04T05:49:39.664Z,1.50
2018-01-04T05:52:07.224Z,1.67
2018-01-04T05:54:34.759Z,1.40
2018-01-04T05:57:02.336Z,2.07
2018-01-04T05:59:29.846Z,2.70
2018-01-04T06:01:58.125Z,1.40
2018-01-04T06:04:25.686Z,1.53
2018-01-04T06:06:53.244Z,1.50
2018-01-04T06:09:20.778Z,1.17
2018-01-04T06:11:48.326Z,1.90
2018-01-04T06:14:15.843Z,2.73
2018-01-04T06:16:43.398Z,1.13
2018-01-04T06:19:10.918Z,1.80
2018-01-04T06:21:38.457Z,1.67
2018-01-04T06:24:05.969Z,1.37
2018-01-04T06:26:33.521Z,1.37
2018-01-04T06:29:01.081Z,1.17
2018-01-04T06:31:28.625Z,1.37
2018-01-04T06:33:56.156Z,1.43
2018-01-04T06:36:23.817Z,1.70
2018-01-04T06:38:51.366Z,1.63
2018-01-04T06:41:18.905Z,1.27
2018-01-04T06:43:46.418Z,2.53
2018-01-04T06:46:13.967Z,1.80
2018-01-04T06:48:41.571Z,1.57
2018-01-04T06:51:09.146Z,1.37
2018-01-04T06:53:37.465Z,1.10
2018-01-04T06:56:05.027Z,2.93
2018-01-04T06:58:32.574Z,2.07
2018-01-04T07:01:00.160Z,2.57
2018-01-04T07:03:27.682Z,1.30
2018-01-04T07:05:55.216Z,1.40
2018-01-04T07:08:22.834Z,1.43
2018-01-04T07:10:50.381Z,1.40
2018-01-04T07:13:17.927Z,3.07
2018-01-04T07:15:45.481Z,1.50
2018-01-04T07:18:12.996Z,1.73
2018-01-04T07:20:40.547Z,3.20
2018-01-04T07:23:08.902Z,1.10
2018-01-04T07:25:36.459Z,1.87
2018-01-04T07:28:04.000Z,1.00
2018-01-04T07:30:31.585Z,1.23
2018-01-04T07:32:59.108Z,2.30
2018-01-04T07:35:26.634Z,1.30
2018-01-04T07:37:54.196Z,2.17
2018-01-04T07:40:21.754Z,1.67
2018-01-04T07:42:49.298Z,1.13
2018-01-04T07:45:17.671Z,1.43
2018-01-04T07:47:45.953Z,1.53
2018-01-04T07:50:13.483Z,1.20
2018-01-04T07:52:41.826Z,1.33
2018-01-04T07:55:09.369Z,1.20
2018-01-04T07:57:37.023Z,1.73
2018-01-04T08:00:04.605Z,2.27
2018-01-04T08:02:32.169Z,1.60
2018-01-04T08:04:59.755Z,2.23
2018-01-04T08:07:27.289Z,1.63
2018-01-04T08:09:54.854Z,19.60
2018-01-04T08:12:22.369Z,1.40
2018-01-04T08:14:49.913Z,2.33
2018-01-04T08:17:18.245Z,1.80
2018-01-04T08:19:45.768Z,4.13
2018-01-04T08:22:14.173Z,1.90
2018-01-04T08:24:41.729Z,1.57
2018-01-04T08:27:09.245Z,1.40
2018-01-04T08:29:36.854Z,1.80
2018-01-04T08:32:04.365Z,1.60
2018-01-04T08:34:31.993Z,1.47
2018-01-04T08:36:59.554Z,1.50
2018-01-04T08:39:27.090Z,1.97
2018-01-04T08:41:54.669Z,1.33
2018-01-04T08:44:22.191Z,1.67
2018-01-04T08:46:49.722Z,2.40
2018-01-04T08:49:17.284Z,2.00
2018-01-04T08:51:44.868Z,1.87
2018-01-04T08:54:12.406Z,1.90
2018-01-04T08:56:40.079Z,1.60
2018-01-04T08:59:07.643Z,3.50
2018-01-04T09:01:35.167Z,12.13
2018-01-04T09:04:02.733Z,7.90
2018-01-04T09:06:30.320Z,4.83
2018-01-04T09:08:57.920Z,2.63
2018-01-04T09:11:25.447Z,2.87
2018-01-04T09:13:53.299Z,1.80
2018-01-04T09:16:20.870Z,1.77
2018-01-04T09:18:48.434Z,1.87
2018-01-04T09:21:15.992Z,2.23
2018-01-04T09:23:43.540Z,1.60
2018-01-04T09:26:11.097Z,2.20
2018-01-04T09:28:39.453Z,2.87
2018-01-04T09:31:07.037Z,2.10
2018-01-04T09:33:34.569Z,2.53
2018-01-04T09:36:02.233Z,1.87
2018-01-04T09:38:29.771Z,1.70
2018-01-04T09:40:57.312Z,2.50
2018-01-04T09:43:24.870Z,4.00
2018-01-04T09:45:52.566Z,1.37
2018-01-04T09:48:20.470Z,1.83
2018-01-04T09:50:48.809Z,1.80
2018-01-04T09:53:16.342Z,2.20
2018-01-04T09:55:44.620Z,4.83
2018-01-04T09:58:12.195Z,1.70
2018-01-04T10:00:39.738Z,3.97
2018-01-04T10:03:07.306Z,2.87
2018-01-04T10:05:34.941Z,3.47
2018-01-04T10:08:03.401Z,1.80
2018-01-04T10:10:31.737Z,2.30
2018-01-04T10:12:59.324Z,2.10
2018-01-04T10:15:26.945Z,2.40
2018-01-04T10:20:36.334Z,1.97
2018-01-04T10:23:03.853Z,2.63
2018-01-04T10:25:31.589Z,2.37
2018-01-04T10:27:59.174Z,1.87
2018-01-04T10:30:26.707Z,2.83
2018-01-04T10:32:54.272Z,3.30
2018-01-04T10:35:21.802Z,1.80
2018-01-04T10:37:49.359Z,3.73
2018-01-04T10:40:16.872Z,3.67
2018-01-04T10:42:44.441Z,2.67
2018-01-04T10:45:12.014Z,2.73
2018-01-04T10:47:39.546Z,2.27
2018-01-04T10:50:07.111Z,3.07
2018-01-04T10:52:34.678Z,3.40
2018-01-04T10:55:02.243Z,4.07
2018-01-04T10:57:29.769Z,3.20
2018-01-04T10:59:57.667Z,2.60
2018-01-04T11:02:25.193Z,2.27
2018-01-04T11:04:53.585Z,2.47
2018-01-04T11:07:21.125Z,4.40
2018-01-04T11:09:49.455Z,3.33
2018-01-04T11:12:17.005Z,3.60
2018-01-04T11:14:44.525Z,3.90
2018-01-04T11:17:12.062Z,4.10
2018-01-04T11:19:39.629Z,3.90
2018-01-04T11:22:07.933Z,5.93
2018-01-04T11:24:35.699Z,9.53
2018-01-04T11:27:03.234Z,3.00
2018-01-04T11:29:31.634Z,6.30
2018-01-04T11:31:59.225Z,5.13
2018-01-04T11:34:27.605Z,5.67
2018-01-04T11:36:55.134Z,3.83
2018-01-04T11:39:22.757Z,4.27
2018-01-04T11:41:50.326Z,4.53
2018-01-04T11:44:17.870Z,8.63
2018-01-04T11:46:45.454Z,9.87
2018-01-04T11:49:13.040Z,6.77
2018-01-04T11:51:40.569Z,10.83
2018-01-04T11:54:08.128Z,10.10
2018-01-04T11:56:35.706Z,9.23
2018-01-04T11:59:03.767Z,9.63
2018-01-04T12:01:31.288Z,8.07
2018-01-04T12:03:58.865Z,5.23
2018-01-04T12:06:26.451Z,7.03
2018-01-04T12:08:54.314Z,7.50
2018-01-04T12:11:21.905Z,5.87
2018-01-04T12:13:49.428Z,4.43
2018-01-04T12:16:16.992Z,4.53
2018-01-04T12:18:45.302Z,4.47
2018-01-04T12:21:12.885Z,3.13
2018-01-04T12:23:40.462Z,1.97
2018-01-04T12:26:08.342Z,1.90
2018-01-04T12:28:35.898Z,2.17
2018-01-04T12:31:03.494Z,2.27
2018-01-04T12:33:31.133Z,1.47
2018-01-04T12:35:59.668Z,2.80
2018-01-04T12:38:27.250Z,1.70
2018-01-04T12:40:54.838Z,1.83
2018-01-04T12:43:22.378Z,2.10
2018-01-04T12:45:49.947Z,1.40
2018-01-04T12:48:17.476Z,1.87
2018-01-04T12:50:45.034Z,3.90
2018-01-04T12:53:12.573Z,1.83
2018-01-04T12:55:40.237Z,1.90
2018-01-04T12:58:07.778Z,2.50
2018-01-04T13:00:35.343Z,2.17
2018-01-04T13:03:02.865Z,2.03
2018-01-04T13:05:30.426Z,2.63
2018-01-04T13:07:57.987Z,3.23
2018-01-04T13:10:25.544Z,4.50
2018-01-04T13:12:53.102Z,3.23
2018-01-04T13:15:20.641Z,7.13
2018-01-04T13:17:48.682Z,6.87
2018-01-04T13:20:16.233Z,6.73
2018-01-04T13:22:43.903Z,4.00
2018-01-04T13:25:11.578Z,5.47
2018-01-04T13:27:39.186Z,7.20
2018-01-04T13:30:06.831Z,3.40
2018-01-04T13:32:34.377Z,7.37
2018-01-04T13:35:01.993Z,7.00
2018-01-04T13:37:29.548Z,7.13
2018-01-04T13:39:57.078Z,5.90
2018-01-04T13:42:24.644Z,4.80
2018-01-04T13:44:52.178Z,5.23
2018-01-04T13:47:19.759Z,4.93
2018-01-04T13:49:47.297Z,5.93
2018-01-04T13:52:15.049Z,6.03
2018-01-04T13:54:42.653Z,6.60
2018-01-04T13:57:11.099Z,9.10
2018-01-04T13:59:38.682Z,6.40
2018-01-04T14:02:06.240Z,8.13
2018-01-04T14:04:33.802Z,4.90
2018-01-04T14:07:01.378Z,4.67
2018-01-04T14:09:28.922Z,5.93
2018-01-04T14:11:56.485Z,7.53
2018-01-04T14:14:24.096Z,8.13
2018-01-04T14:16:51.616Z,5.93
2018-01-04T14:19:19.974Z,6.67
2018-01-04T14:21:47.568Z,6.93
2018-01-04T14:24:15.106Z,5.33
2018-01-04T14:26:42.921Z,6.87
2018-01-04T14:29:10.493Z,4.87
2018-01-04T14:31:38.015Z,4.70
2018-01-04T14:34:05.560Z,7.83
2018-01-04T14:36:33.109Z,3.47
2018-01-04T14:39:01.400Z,5.43
2018-01-04T14:41:28.958Z,4.27
2018-01-04T14:43:57.290Z,4.47
2018-01-04T14:46:24.853Z,4.43
2018-01-04T14:48:52.386Z,7.33
2018-01-04T14:51:20.028Z,4.10
2018-01-04T14:53:47.931Z,4.63
2018-01-04T14:56:15.754Z,3.97
2018-01-04T14:58:43.317Z,6.47
2018-01-04T15:01:11.645Z,4.87
2018-01-04T15:03:39.399Z,6.90
2018-01-04T15:06:06.985Z,8.03
2018-01-04T15:08:34.542Z,5.70
2018-01-04T15:11:02.070Z,5.93
2018-01-04T15:13:29.659Z,5.43
2018-01-04T15:15:57.230Z,5.83
2018-01-04T15:18:24.788Z,5.73
2018-01-04T15:20:52.333Z,6.73
2018-01-04T15:23:19.909Z,5.60
2018-01-04T15:25:48.112Z,6.23
2018-01-04T15:28:16.466Z,9.57
2018-01-04T15:30:44.013Z,6.37
2018-01-04T15:33:11.596Z,5.60
2018-01-04T15:35:39.156Z,6.43
2018-01-04T15:38:07.521Z,6.53
2018-01-04T15:40:35.083Z,6.47
2018-01-04T15:43:02.692Z,7.47
2018-01-04T15:45:30.217Z,5.43
2018-01-04T15:47:58.550Z,6.57
2018-01-04T15:50:26.460Z,8.57
2018-01-04T15:52:54.030Z,6.53
2018-01-04T15:55:21.556Z,6.90
2018-01-04T15:57:49.117Z,7.10
2018-01-04T16:00:16.684Z,6.53
2018-01-04T16:02:45.066Z,5.60
2018-01-04T16:05:12.628Z,9.23
2018-01-04T16:07:40.182Z,5.17
2018-01-04T16:10:07.737Z,7.17
2018-01-04T16:12:35.310Z,5.13
2018-01-04T16:15:02.917Z,5.60
2018-01-04T16:17:30.450Z,4.57
2018-01-04T16:19:58.047Z,4.90
2018-01-04T16:22:25.590Z,4.07
2018-01-04T16:24:53.198Z,4.23
2018-01-04T16:27:21.011Z,4.43
2018-01-04T16:29:48.625Z,5.23
2018-01-04T16:32:16.161Z,5.63
2018-01-04T16:34:43.720Z,6.43
2018-01-04T16:37:11.346Z,6.23
2018-01-04T16:39:38.905Z,5.50
2018-01-04T16:42:06.478Z,5.60
2018-01-04T16:44:34.022Z,5.13
2018-01-04T16:47:01.597Z,4.40
2018-01-04T16:49:29.141Z,5.30
2018-01-04T16:51:56.742Z,4.53
2018-01-04T16:54:24.260Z,5.33
2018-01-04T16:56:52.580Z,3.83
2018-01-04T16:59:20.141Z,4.40
2018-01-04T17:01:47.693Z,2.73
2018-01-04T17:04:15.284Z,2.53
2018-01-04T17:06:42.814Z,1.90
2018-01-04T17:09:10.398Z,2.20
2018-01-04T17:11:37.989Z,2.83
2018-01-04T17:14:06.335Z,2.30
2018-01-04T17:16:33.892Z,2.07
2018-01-04T17:19:01.483Z,3.03
2018-01-04T17:21:29.042Z,2.70
2018-01-04T17:23:57.388Z,2.20
2018-01-04T17:26:25.750Z,2.17
2018-01-04T17:28:53.319Z,2.10
2018-01-04T17:31:20.873Z,1.90
2018-01-04T17:33:48.479Z,2.00
2018-01-04T17:36:16.097Z,3.10
2018-01-04T17:38:43.653Z,3.47
2018-01-04T17:41:11.249Z,1.87
2018-01-04T17:43:38.808Z,1.90
2018-01-04T17:46:06.346Z,1.77
2018-01-04T17:48:33.887Z,2.07
2018-01-04T17:51:01.456Z,2.00
2018-01-04T17:53:29.019Z,2.70
2018-01-04T17:55:56.726Z,1.73
2018-01-04T17:58:24.263Z,2.47
2018-01-04T18:00:51.852Z,2.03
2018-01-04T18:03:19.424Z,2.10
2018-01-04T18:05:47.037Z,2.00
2018-01-04T18:08:14.558Z,2.00
2018-01-04T18:10:42.183Z,1.80
2018-01-04T18:13:10.527Z,2.00
2018-01-04T18:15:38.149Z,2.23
2018-01-04T18:18:05.705Z,1.83
2018-01-04T18:20:33.295Z,1.60
2018-01-04T18:23:00.861Z,1.60
2018-01-04T18:25:28.394Z,1.70
2018-01-04T18:28:03.171Z,1.50
2018-01-04T18:30:30.717Z,1.40
2018-01-04T18:32:58.374Z,1.90
2018-01-04T18:35:25.905Z,1.43
2018-01-04T18:37:53.472Z,1.30
2018-01-04T18:40:21.085Z,1.30
2018-01-04T18:42:48.693Z,1.30
2018-01-04T18:45:16.304Z,1.57
2018-01-04T18:47:44.681Z,1.70
2018-01-04T18:50:12.254Z,1.40
2018-01-04T18:52:40.646Z,1.10
2018-01-04T18:55:08.253Z,1.53
2018-01-04T18:57:35.859Z,1.53
2018-01-04T19:00:04.197Z,1.60
2018-01-04T19:02:31.817Z,1.70
2018-01-04T19:04:59.439Z,1.80
2018-01-04T19:07:27.061Z,4.17
2018-01-04T19:09:54.677Z,1.40
2018-01-04T19:12:23.052Z,1.10
2018-01-04T19:14:51.397Z,1.20
2018-01-04T19:17:18.977Z,1.40
2018-01-04T19:19:46.562Z,1.60
2018-01-04T19:22:14.137Z,1.43
2018-01-04T19:24:41.800Z,1.03
2018-01-04T19:27:09.406Z,1.20
2018-01-04T19:29:36.983Z,2.17
2018-01-04T19:32:04.557Z,1.30
2018-01-04T19:34:32.880Z,1.47
2018-01-04T19:37:00.482Z,1.50
2018-01-04T19:39:28.092Z,1.20
2018-01-04T19:41:55.669Z,1.37
2018-01-04T19:44:23.229Z,1.27
2018-01-04T19:46:50.749Z,1.30
2018-01-04T19:49:18.310Z,3.57
2018-01-04T19:51:45.897Z,1.13
2018-01-04T19:54:13.505Z,1.33
2018-01-04T19:56:41.884Z,1.30
2018-01-04T19:59:10.270Z,1.57
2018-01-04T20:01:38.977Z,1.97
2018-01-04T20:04:06.564Z,1.93
2018-01-04T20:06:34.172Z,3.03
2018-01-04T20:09:01.760Z,1.93
2018-01-04T20:11:30.609Z,1.53
2018-01-04T20:13:58.240Z,1.40
2018-01-04T20:16:25.844Z,1.50
2018-01-04T20:18:53.512Z,2.60
2018-01-04T20:21:21.144Z,1.40
2018-01-04T20:23:48.742Z,1.17
2018-01-04T20:26:16.342Z,1.87
2018-01-04T20:28:43.951Z,1.30
2018-01-04T20:31:11.548Z,1.13
2018-01-04T20:33:39.156Z,2.07
2018-01-04T20:36:06.784Z,1.27
2018-01-04T20:38:34.356Z,1.10
2018-01-04T20:41:01.922Z,1.10
2018-01-04T20:43:29.529Z,1.33
2018-01-04T20:45:57.169Z,1.20
2018-01-04T20:48:24.744Z,1.23
2018-01-04T20:50:52.409Z,1.10
2018-01-04T20:53:20.785Z,2.40
2018-01-04T20:55:49.293Z,1.27
2018-01-04T20:58:16.933Z,1.20
2018-01-04T21:00:45.312Z,1.23
2018-01-04T21:03:13.650Z,1.40
2018-01-04T21:05:41.231Z,2.57
2018-01-04T21:08:08.825Z,8.90
2018-01-04T21:10:36.434Z,3.53
2018-01-04T21:13:04.012Z,3.10
2018-01-04T21:15:31.629Z,1.70
2018-01-04T21:18:00.001Z,1.10
2018-01-04T21:20:27.598Z,0.90
2018-01-04T21:22:55.207Z,1.63
2018-01-04T21:25:22.804Z,1.53
2018-01-04T21:27:50.451Z,1.70
2018-01-04T21:30:18.012Z,1.23
2018-01-04T21:32:45.620Z,1.93
2018-01-04T21:35:13.201Z,1.20
2018-01-04T21:37:40.832Z,1.60
2018-01-04T21:40:08.405Z,2.00
2018-01-04T21:42:36.000Z,1.83
2018-01-04T21:45:03.608Z,1.63
2018-01-04T21:47:31.185Z,1.70
2018-01-04T21:49:58.811Z,5.43
2018-01-04T21:52:26.380Z,3.03
2018-01-04T21:54:53.949Z,3.20
2018-01-04T21:57:22.042Z,1.10
2018-01-04T21:59:50.380Z,1.33
2018-01-04T22:02:17.992Z,1.30
2018-01-04T22:04:45.629Z,5.27
2018-01-04T22:07:13.202Z,7.13
2018-01-04T22:09:40.828Z,4.77
2018-01-04T22:12:08.384Z,5.43
2018-01-04T22:14:35.940Z,8.13
2018-01-04T22:17:03.534Z,8.03
2018-01-04T22:19:31.099Z,6.20
2018-01-04T22:21:58.707Z,10.80
2018-01-04T22:24:26.290Z,10.93
2018-01-04T22:26:53.933Z,11.50
2018-01-04T22:29:21.509Z,7.30
2018-01-04T22:31:49.132Z,16.37
2018-01-04T22:34:16.701Z,15.13
2018-01-04T22:36:44.281Z,12.60
2018-01-04T22:39:11.888Z,9.93
2018-01-04T22:41:40.244Z,14.07
2018-01-04T22:44:07.823Z,17.43
2018-01-04T22:46:35.428Z,10.73
2018-01-04T22:49:03.011Z,13.13
2018-01-04T22:51:30.589Z,13.10
2018-01-04T22:53:58.205Z,9.97
2018-01-04T22:56:25.819Z,9.53
2018-01-04T22:58:53.469Z,11.77
2018-01-04T23:01:21.060Z,13.40
2018-01-04T23:03:48.634Z,6.80
2018-01-04T23:06:16.981Z,14.30
2018-01-04T23:08:44.986Z,14.50
2018-01-04T23:11:12.562Z,10.83
2018-01-04T23:13:40.163Z,10.30
2018-01-04T23:16:07.735Z,11.83
2018-01-04T23:18:35.340Z,12.70
2018-01-04T23:21:02.924Z,19.60
2018-01-04T23:23:30.497Z,14.60
2018-01-04T23:25:58.112Z,14.77
2018-01-04T23:28:25.673Z,17.03
2018-01-04T23:30:53.276Z,12.67
2018-01-04T23:33:20.885Z,12.00
2018-01-04T23:35:49.228Z,11.20
2018-01-04T23:38:16.776Z,14.47
2018-01-04T23:40:44.346Z,12.93
2018-01-04T23:43:11.957Z,18.20
2018-01-04T23:45:39.528Z,12.27
2018-01-04T23:48:07.107Z,17.80
2018-01-04T23:50:34.731Z,19.07
2018-01-04T23:53:02.327Z,16.43
2018-01-04T23:55:29.890Z,10.93
2018-01-04T23:57:57.546Z,15.77
